Fascination — C6FM9 — position and weather

sailwx.info

Track history (hours):
 
Tides and Currents Weather Stations Pressure Air Temp Water Temp Dewpoint Dewpoint Depression Visibility Wind Speed Wind Dir Waves Ship Positions

Fascination

Operator: Carnival Cruise Lines

Last reported at 2018-May-23 03:23 UTC. Time now 2018-May-23 05:29 UTC.
Position N 14°11' W 060°38'.

Type: Ship. MMSI: 309682000.

Date/timePositionNaut miles runAvg speedWind from/ knotsBaromVisibWave heightAir tempDewpointWater temp
2018-May-23 03:23N 14°11' W 060°38'410.4
2018-May-23 03:00N 14°12' W 060°42'611.1
2018-May-23 02:30N 14°13' W 060°48'611.1
2018-May-23 02:00N 14°13' W 060°53'611.7
2018-May-23 01:30N 14°13' W 060°59'611.8
2018-May-23 01:00N 14°14' W 061°06'611.8
2018-May-23 00:30N 14°14' W 061°12'611.3
2018-May-22 23:59N 14°17' W 061°17'1912.9
2018-May-22 22:32N 14°31' W 061°29'112.6
2018-May-22 22:28N 14°32' W 061°30'26 1.9
2018-May-22 09:00N 14°12' W 061°12'23076.6 250 / 191021.310.8 26.024.626.5
2018-May-22 06:00N 17°06' W 063°48'3511.5 250 / 211014.2 5.4 26.023.125.0
2018-May-22 03:00N 17°36' W 064°06'75 4.1 250 / 251019.310.8 26.023.126.5
2018-May-21 09:00N 18°24' W 065°06'26 8.6 290 / 211022.310.8 26.023.126.0
2018-May-21 06:00N 18°36' W 065°30'29 1.4 210 / 251013.2 5.4 26.021.524.0
2018-May-20 09:00N 18°42' W 066°00'4213.9 020 / 251023.310.8 26.023.126.0
2018-May-20 06:00N 18°30' W 065°18'4213.9 090 / 341016.2 5.4 26.023.125.0
2018-May-20 03:00N 18°06' W 064°42'6515.6 050 / 281021.310.8 26.023.126.0
2018-May-19 22:49N 18°02' W 063°34'616.8
2018-May-19 22:28N 18°02' W 063°27'816.9
2018-May-19 21:59N 18°01' W 063°19'917.0
2018-May-19 21:26N 18°01' W 063°09'6 3.6
2018-May-19 19:51N 18°01' W 063°03'0 0.0
2018-May-19 18:44N 18°01' W 063°03'0 0.0
2018-May-19 18:26N 18°01' W 063°03'0 0.0
2018-May-19 17:59N 18°01' W 063°03'0 0.0
2018-May-19 17:23N 18°01' W 063°03'0 0.0
2018-May-19 16:50N 18°01' W 063°03'0 0.0
2018-May-19 16:28N 18°01' W 063°03'0 0.0
2018-May-19 15:37N 18°01' W 063°03'0 0.0
2018-May-19 15:25N 18°01' W 063°03'0 0.0
2018-May-19 14:36N 18°01' W 063°03'0 0.0
2018-May-19 14:21N 18°01' W 063°03'0 0.0
2018-May-19 14:00N 18°01' W 063°03'0 0.0
2018-May-19 13:30N 18°01' W 063°03'0 0.0
2018-May-19 12:54N 18°01' W 063°03'0 0.0
2018-May-19 12:23N 18°01' W 063°03'0 0.0
2018-May-19 11:51N 18°01' W 063°03'0 0.0
2018-May-19 11:26N 18°01' W 063°03'0 0.0
2018-May-19 10:56N 18°01' W 063°03'0 0.7
2018-May-19 10:26N 18°00' W 063°03'4 7.7
2018-May-19 09:53N 18°00' W 063°08'511.5
2018-May-19 09:28N 18°01' W 063°13'511.1
2018-May-19 09:00N 18°00' W 063°18'138.0 210 / 191023.327.0 25.022.026.0
2018-May-19 08:58N 18°01' W 063°19'510.7
2018-May-19 08:30N 18°01' W 063°24'5 9.5
2018-May-19 07:59N 18°03' W 063°28'4 9.1
2018-May-19 07:29N 18°06' W 063°33'4 8.8
2018-May-19 07:00N 18°08' W 063°37'4 8.3
2018-May-19 06:29N 18°09' W 063°41'3 7.0
2018-May-19 06:00N 18°06' W 063°42'394.8 120 / 371014.2 5.4 25.023.524.0
2018-May-19 05:57N 18°09' W 063°44'5 9.7
2018-May-19 05:27N 18°04' W 063°44'5 9.5
2018-May-19 04:58N 17°59' W 063°44'5 9.3
2018-May-19 04:28N 17°55' W 063°43'5 9.7
2018-May-19 03:58N 17°53' W 063°38'5 9.9
2018-May-19 03:30N 17°53' W 063°33'1019.8
2018-May-19 03:00N 17°48' W 063°24'6158.5 010 / 221018.310.8 26.023.126.0
2018-May-19 02:57N 17°53' W 063°27'510.5
2018-May-19 02:30N 17°52' W 063°22'510.7
2018-May-19 01:59N 17°49' W 063°17'510.5
2018-May-19 01:30N 17°46' W 063°13'611.1
2018-May-19 00:58N 17°43' W 063°08'510.7
2018-May-19 00:29N 17°38' W 063°07'1611.1
2018-May-18 23:04N 17°23' W 063°02'512.0
2018-May-18 22:41N 17°20' W 062°58'211.7
2018-May-18 22:30N 17°18' W 062°56'13 1.1
2018-May-18 11:06N 17°15' W 062°43'412.7
2018-May-18 10:46N 17°11' W 062°43'516.6
2018-May-18 10:27N 17°06' W 062°43'2517.1
2018-May-18 09:00N 16°42' W 062°36'5618.7 090 / 341021.310.8 26.021.526.0
2018-May-18 06:00N 15°54' W 062°06'4013.3 080 / 261012.2 5.4 26.021.525.0
2018-May-18 03:00N 15°18' W 061°48'4016.4 080 / 321017.310.8 26.023.126.0
2018-May-18 00:34N 14°42' W 061°31'215.7
2018-May-18 00:28N 14°41' W 061°30'716.2
2018-May-18 00:00N 14°33' W 061°27'2016.4
2018-May-17 22:45N 14°15' W 061°18'416.4
2018-May-17 22:30N 14°11' W 061°16'816.8
2018-May-17 22:00N 14°08' W 061°08'814.4
2018-May-17 21:29N 14°02' W 061°03'3 4.3
2018-May-17 20:44N 14°01' W 060°60'0 0.0
2018-May-17 20:23N 14°01' W 060°60'0 0.0
2018-May-17 19:46N 14°01' W 060°60'0 0.0
2018-May-17 19:22N 14°01' W 060°60'0 0.0
2018-May-17 18:58N 14°01' W 060°60'0 0.0
2018-May-17 18:25N 14°01' W 060°60'0 0.0
2018-May-17 16:33N 14°01' W 060°60'0 0.0
2018-May-17 16:30N 14°01' W 060°60'0 0.0
2018-May-17 15:38N 14°01' W 060°60'0 0.0
2018-May-17 15:26N 14°01' W 060°60'0 0.0
2018-May-17 14:59N 14°01' W 060°60'0 0.0
2018-May-17 13:44N 14°01' W 060°60'0 0.0
2018-May-17 13:26N 14°01' W 060°60'0 0.0
2018-May-17 11:37N 14°01' W 060°60'3 3.8
2018-May-17 10:53N 14°02' W 061°02'2111.0
2018-May-17 09:00N 13°48' W 061°18'25 8.4 170 / 201021.310.8 25.020.526.0
2018-May-17 06:00N 13°30' W 061°00'3210.5 050 / 181013.2 5.4 26.021.525.0
2018-May-17 03:00N 13°18' W 060°30'32 1.8 050 / 181018.310.8 26.023.126.0
2018-May-16 09:00N 13°48' W 060°18'3121.6 270 / 291021.310.8 26.021.526.0
2018-May-16 07:34N 14°12' W 060°38'219.2
2018-May-16 07:28N 14°12' W 060°40'919.4
2018-May-16 07:00N 14°13' W 060°49'1019.8
2018-May-16 06:30N 14°13' W 060°59'918.8
2018-May-16 06:00N 14°16' W 061°08'3186.5
2018-May-16 06:00N 14°18' W 061°06'1021.4 270 / 261014.210.8 26.019.925.0
2018-May-16 05:30N 14°25' W 061°14'1020.3
2018-May-16 05:00N 14°34' W 061°18'1020.2
2018-May-16 04:30N 14°43' W 061°23'14610.3
2018-May-15 14:18N 17°07' W 061°51'0 0.0
2018-May-15 14:00N 17°07' W 061°51'0 0.0
2018-May-15 13:30N 17°07' W 061°51'0 0.0
2018-May-15 12:59N 17°07' W 061°51'0 0.0
2018-May-15 12:29N 17°07' W 061°51'0 0.0
2018-May-15 11:59N 17°07' W 061°51'0 0.0
2018-May-15 11:29N 17°07' W 061°51'0 0.0
2018-May-15 11:00N 17°07' W 061°51'0 0.8
2018-May-15 10:30N 17°07' W 061°51'4 7.7
2018-May-15 10:00N 17°09' W 061°55'612.1
2018-May-15 09:30N 17°11' W 062°01'612.1
2018-May-15 09:00N 17°15' W 062°06'3182.1
2018-May-15 09:00N 17°12' W 062°06'816.5 220 / 241022.310.8 26.021.526.0
2018-May-15 08:30N 17°19' W 062°11'815.2
2018-May-15 08:00N 17°23' W 062°17'815.6
2018-May-15 07:30N 17°28' W 062°24'816.1
2018-May-15 07:00N 17°33' W 062°31'2416.1
2018-May-15 05:29N 17°44' W 062°53'1316.0
2018-May-15 04:42N 17°48' W 063°06'415.6
2018-May-15 04:28N 17°49' W 063°10'915.9
2018-May-15 03:54N 17°51' W 063°19'715.9
2018-May-15 03:27N 17°53' W 063°26'715.6
2018-May-15 03:00N 17°55' W 063°33'815.8
2018-May-15 02:30N 17°57' W 063°41'83 4.8
2018-May-14 09:00N 18°18' W 065°06'29 9.7 300 / 221023.310.8 26.021.526.0
2018-May-14 06:00N 18°36' W 065°30'24 1.1 230 / 231016.2 5.4 26.023.124.0
2018-May-13 09:00N 18°42' W 065°54'3612.1 060 / 251023.310.8 25.022.026.0
2018-May-13 06:00N 18°30' W 065°18'   090 / 301016.2 5.4 26.021.524.0
Track history (hours):
 
Tides and Currents Weather Stations Pressure Air Temp Water Temp Dewpoint Dewpoint Depression Visibility Wind Speed Wind Dir Waves Ship Positions

Fascination

Operator: Carnival Cruise Lines

Last reported at 2018-May-23 03:23 UTC. Time now 2018-May-23 05:29 UTC.
Position N 14°11' W 060°38'.

Type: Ship. MMSI: 309682000.

Date/timePositionNaut miles runAvg speedWind from/ knotsBaromVisibWave heightAir tempDewpointWater temp
2018-May-23 03:23N 14°11' W 060°38'410.4
2018-May-23 03:00N 14°12' W 060°42'611.1
2018-May-23 02:30N 14°13' W 060°48'611.1
2018-May-23 02:00N 14°13' W 060°53'611.7
2018-May-23 01:30N 14°13' W 060°59'611.8
2018-May-23 01:00N 14°14' W 061°06'611.8
2018-May-23 00:30N 14°14' W 061°12'611.3
2018-May-22 23:59N 14°17' W 061°17'1912.9
2018-May-22 22:32N 14°31' W 061°29'112.6
2018-May-22 22:28N 14°32' W 061°30'26 1.9
2018-May-22 09:00N 14°12' W 061°12'23076.6 250 / 191021.310.8 26.024.626.5
2018-May-22 06:00N 17°06' W 063°48'3511.5 250 / 211014.2 5.4 26.023.125.0
2018-May-22 03:00N 17°36' W 064°06'75 4.1 250 / 251019.310.8 26.023.126.5
2018-May-21 09:00N 18°24' W 065°06'26 8.6 290 / 211022.310.8 26.023.126.0
2018-May-21 06:00N 18°36' W 065°30'29 1.4 210 / 251013.2 5.4 26.021.524.0
2018-May-20 09:00N 18°42' W 066°00'4213.9 020 / 251023.310.8 26.023.126.0
2018-May-20 06:00N 18°30' W 065°18'4213.9 090 / 341016.2 5.4 26.023.125.0
2018-May-20 03:00N 18°06' W 064°42'6515.6 050 / 281021.310.8 26.023.126.0
2018-May-19 22:49N 18°02' W 063°34'616.8
2018-May-19 22:28N 18°02' W 063°27'816.9
2018-May-19 21:59N 18°01' W 063°19'917.0
2018-May-19 21:26N 18°01' W 063°09'6 3.6
2018-May-19 19:51N 18°01' W 063°03'0 0.0
2018-May-19 18:44N 18°01' W 063°03'0 0.0
2018-May-19 18:26N 18°01' W 063°03'0 0.0
2018-May-19 17:59N 18°01' W 063°03'0 0.0
2018-May-19 17:23N 18°01' W 063°03'0 0.0
2018-May-19 16:50N 18°01' W 063°03'0 0.0
2018-May-19 16:28N 18°01' W 063°03'0 0.0
2018-May-19 15:37N 18°01' W 063°03'0 0.0
2018-May-19 15:25N 18°01' W 063°03'0 0.0
2018-May-19 14:36N 18°01' W 063°03'0 0.0
2018-May-19 14:21N 18°01' W 063°03'0 0.0
2018-May-19 14:00N 18°01' W 063°03'0 0.0
2018-May-19 13:30N 18°01' W 063°03'0 0.0
2018-May-19 12:54N 18°01' W 063°03'0 0.0
2018-May-19 12:23N 18°01' W 063°03'0 0.0
2018-May-19 11:51N 18°01' W 063°03'0 0.0
2018-May-19 11:26N 18°01' W 063°03'0 0.0
2018-May-19 10:56N 18°01' W 063°03'0 0.7
2018-May-19 10:26N 18°00' W 063°03'4 7.7
2018-May-19 09:53N 18°00' W 063°08'511.5
2018-May-19 09:28N 18°01' W 063°13'511.1
2018-May-19 09:00N 18°00' W 063°18'138.0 210 / 191023.327.0 25.022.026.0
2018-May-19 08:58N 18°01' W 063°19'510.7
2018-May-19 08:30N 18°01' W 063°24'5 9.5
2018-May-19 07:59N 18°03' W 063°28'4 9.1
2018-May-19 07:29N 18°06' W 063°33'4 8.8
2018-May-19 07:00N 18°08' W 063°37'4 8.3
2018-May-19 06:29N 18°09' W 063°41'3 7.0
2018-May-19 06:00N 18°06' W 063°42'394.8 120 / 371014.2 5.4 25.023.524.0
2018-May-19 05:57N 18°09' W 063°44'5 9.7
2018-May-19 05:27N 18°04' W 063°44'5 9.5
2018-May-19 04:58N 17°59' W 063°44'5 9.3
2018-May-19 04:28N 17°55' W 063°43'5 9.7
2018-May-19 03:58N 17°53' W 063°38'5 9.9
2018-May-19 03:30N 17°53' W 063°33'1019.8
2018-May-19 03:00N 17°48' W 063°24'6158.5 010 / 221018.310.8 26.023.126.0
2018-May-19 02:57N 17°53' W 063°27'510.5
2018-May-19 02:30N 17°52' W 063°22'510.7
2018-May-19 01:59N 17°49' W 063°17'510.5
2018-May-19 01:30N 17°46' W 063°13'611.1
2018-May-19 00:58N 17°43' W 063°08'510.7
2018-May-19 00:29N 17°38' W 063°07'1611.1
2018-May-18 23:04N 17°23' W 063°02'512.0
2018-May-18 22:41N 17°20' W 062°58'211.7
2018-May-18 22:30N 17°18' W 062°56'13 1.1
2018-May-18 11:06N 17°15' W 062°43'412.7
2018-May-18 10:46N 17°11' W 062°43'516.6
2018-May-18 10:27N 17°06' W 062°43'2517.1
2018-May-18 09:00N 16°42' W 062°36'5618.7 090 / 341021.310.8 26.021.526.0
2018-May-18 06:00N 15°54' W 062°06'4013.3 080 / 261012.2 5.4 26.021.525.0
2018-May-18 03:00N 15°18' W 061°48'4016.4 080 / 321017.310.8 26.023.126.0
2018-May-18 00:34N 14°42' W 061°31'215.7
2018-May-18 00:28N 14°41' W 061°30'716.2
2018-May-18 00:00N 14°33' W 061°27'2016.4
2018-May-17 22:45N 14°15' W 061°18'416.4
2018-May-17 22:30N 14°11' W 061°16'816.8
2018-May-17 22:00N 14°08' W 061°08'814.4
2018-May-17 21:29N 14°02' W 061°03'3 4.3
2018-May-17 20:44N 14°01' W 060°60'0 0.0
2018-May-17 20:23N 14°01' W 060°60'0 0.0
2018-May-17 19:46N 14°01' W 060°60'0 0.0
2018-May-17 19:22N 14°01' W 060°60'0 0.0
2018-May-17 18:58N 14°01' W 060°60'0 0.0
2018-May-17 18:25N 14°01' W 060°60'0 0.0
2018-May-17 16:33N 14°01' W 060°60'0 0.0
2018-May-17 16:30N 14°01' W 060°60'0 0.0
2018-May-17 15:38N 14°01' W 060°60'0 0.0
2018-May-17 15:26N 14°01' W 060°60'0 0.0
2018-May-17 14:59N 14°01' W 060°60'0 0.0
2018-May-17 13:44N 14°01' W 060°60'0 0.0
2018-May-17 13:26N 14°01' W 060°60'0 0.0
2018-May-17 11:37N 14°01' W 060°60'3 3.8
2018-May-17 10:53N 14°02' W 061°02'2111.0
2018-May-17 09:00N 13°48' W 061°18'25 8.4 170 / 201021.310.8 25.020.526.0
2018-May-17 06:00N 13°30' W 061°00'3210.5 050 / 181013.2 5.4 26.021.525.0
2018-May-17 03:00N 13°18' W 060°30'32 1.8 050 / 181018.310.8 26.023.126.0
2018-May-16 09:00N 13°48' W 060°18'3121.6 270 / 291021.310.8 26.021.526.0
2018-May-16 07:34N 14°12' W 060°38'219.2
2018-May-16 07:28N 14°12' W 060°40'919.4
2018-May-16 07:00N 14°13' W 060°49'1019.8
2018-May-16 06:30N 14°13' W 060°59'918.8
2018-May-16 06:00N 14°16' W 061°08'3186.5
2018-May-16 06:00N 14°18' W 061°06'1021.4 270 / 261014.210.8 26.019.925.0
2018-May-16 05:30N 14°25' W 061°14'1020.3
2018-May-16 05:00N 14°34' W 061°18'1020.2
2018-May-16 04:30N 14°43' W 061°23'14610.3
2018-May-15 14:18N 17°07' W 061°51'0 0.0
2018-May-15 14:00N 17°07' W 061°51'0 0.0
2018-May-15 13:30N 17°07' W 061°51'0 0.0
2018-May-15 12:59N 17°07' W 061°51'0 0.0
2018-May-15 12:29N 17°07' W 061°51'0 0.0
2018-May-15 11:59N 17°07' W 061°51'0 0.0
2018-May-15 11:29N 17°07' W 061°51'0 0.0
2018-May-15 11:00N 17°07' W 061°51'0 0.8
2018-May-15 10:30N 17°07' W 061°51'4 7.7
2018-May-15 10:00N 17°09' W 061°55'612.1
2018-May-15 09:30N 17°11' W 062°01'612.1
2018-May-15 09:00N 17°15' W 062°06'3182.1
2018-May-15 09:00N 17°12' W 062°06'816.5 220 / 241022.310.8 26.021.526.0
2018-May-15 08:30N 17°19' W 062°11'815.2
2018-May-15 08:00N 17°23' W 062°17'815.6
2018-May-15 07:30N 17°28' W 062°24'816.1
2018-May-15 07:00N 17°33' W 062°31'2416.1
2018-May-15 05:29N 17°44' W 062°53'1316.0
2018-May-15 04:42N 17°48' W 063°06'415.6
2018-May-15 04:28N 17°49' W 063°10'915.9
2018-May-15 03:54N 17°51' W 063°19'715.9
2018-May-15 03:27N 17°53' W 063°26'715.6
2018-May-15 03:00N 17°55' W 063°33'815.8
2018-May-15 02:30N 17°57' W 063°41'83 4.8
2018-May-14 09:00N 18°18' W 065°06'29 9.7 300 / 221023.310.8 26.021.526.0
2018-May-14 06:00N 18°36' W 065°30'24 1.1 230 / 231016.2 5.4 26.023.124.0
2018-May-13 09:00N 18°42' W 065°54'3612.1 060 / 251023.310.8 25.022.026.0
2018-May-13 06:00N 18°30' W 065°18'   090 / 301016.2 5.4 26.021.524.0

Dump ship's entire track history